All
Audubon County Airport (Audubon, IA) ADU Weather
|
Audubon, IA (KADU)
Clear skies
Calm winds |
|
77 °F |
There is no TAF data available at ADU or any nearby airports.
Recent ADU METAR history
| Date | Time (CDT) | Flight Rules | Wind Dir. | Speed | Type | Height AGL (ft) | Visibility | Temp (°C) | Temp (°F) | Dew Point (°C) | Dew Point (°F) | Rel. Humid. | Pressure | Density Altitude | Remarks |
|---|---|---|---|---|---|---|---|---|---|---|---|---|---|---|---|
| 05-Sep | 10:55PM | VFR | Calm | 10 miles | 25° | 77° | 24° | 75° | 94% | 30.01 in Hg | 2,635 ft | ||||
| 05-Sep | 10:35PM | VFR | 90° | 3 kt | 10 miles | 26° | 78° | 24° | 75° | 89% | 30.00 in Hg | 2,765 ft | |||
| 05-Sep | 10:15PM | VFR | Calm | 10 miles | 25° | 77° | 24° | 75° | 94% | 30.00 in Hg | 2,645 ft | ||||
| 05-Sep | 09:55PM | VFR | Calm | 10 miles | 26° | 78° | 24° | 75° | 89% | 30.00 in Hg | 2,765 ft | ||||
| 05-Sep | 09:35PM | VFR | Calm | 10 miles | 26° | 78° | 25° | 77° | 94% | 29.99 in Hg | 2,775 ft | ||||
| 05-Sep | 09:15PM | VFR | 90° | 3 kt | 10 miles | 27° | 80° | 25° | 77° | 89% | 29.98 in Hg | 2,905 ft | |||
| 05-Sep | 08:55PM | VFR | 90° | 3 kt | 10 miles | 27° | 80° | 25° | 77° | 89% | 29.98 in Hg | 2,905 ft | |||
| 05-Sep | 08:35PM | VFR | 70° | 3 kt | 10 miles | 27° | 80° | 25° | 77° | 89% | 29.97 in Hg | 2,915 ft | |||
| 05-Sep | 08:15PM | VFR | 80° | 3 kt | 10 miles | 27° | 80° | 26° | 78° | 94% | 29.96 in Hg | 2,925 ft | |||
| 05-Sep | 07:55PM | VFR | 80° | 4 kt | 10 miles | 28° | 82° | 26° | 78° | 89% | 29.96 in Hg | 3,045 ft | |||
| 05-Sep | 07:15PM | VFR | 100° | 3 kt | 10 miles | 30° | 86° | 27° | 80° | 84% | 29.95 in Hg | 3,295 ft | |||
| 05-Sep | 06:55PM | VFR | 110° | 3 kt | 10 miles | 31° | 87° | 27° | 80° | 79% | 29.95 in Hg | 3,415 ft | |||
| 05-Sep | 06:35PM | VFR | 110° | 5 kt | 10 miles | 31° | 87° | 27° | 80° | 79% | 29.95 in Hg | 3,415 ft | |||
| 05-Sep | 06:15PM | VFR | 110° | 5 kt | 10 miles | 32° | 89° | 27° | 80° | 75% | 29.95 in Hg | 3,535 ft | |||
| 05-Sep | 05:55PM | VFR | 120° | 7 kt | 10 miles | 32° | 89° | 26° | 78° | 71% | 29.94 in Hg | 3,545 ft | |||
| 05-Sep | 05:35PM | VFR | 120° | 6 kt | 10 miles | 32° | 89° | 27° | 80° | 75% | 29.94 in Hg | 3,545 ft | |||
| 05-Sep | 05:15PM | VFR | 110° | 7 kt | 10 miles | 32° | 89° | 27° | 80° | 75% | 29.94 in Hg | 3,545 ft | |||
| 05-Sep | 04:55PM | VFR | 120° | 10 kt | 10 miles | 32° | 89° | 26° | 78° | 71% | 29.93 in Hg | 3,555 ft | |||
| 05-Sep | 04:35PM | VFR | 160° | 9 kt | 10 miles | 32° | 89° | 26° | 78° | 71% | 29.94 in Hg | 3,545 ft | |||
| 05-Sep | 04:15PM | VFR | 130° | 9 kt | 10 miles | 32° | 89° | 26° | 78° | 71% | 29.94 in Hg | 3,545 ft | |||
| 05-Sep | 03:55PM | VFR | 120° | 7 kt | 10 miles | 31° | 87° | 26° | 78° | 75% | 29.95 in Hg | 3,415 ft | |||
| 05-Sep | 03:15PM | VFR | 130° | 9 kt | 10 miles | 31° | 87° | 26° | 78° | 75% | 29.96 in Hg | 3,405 ft | |||
| 05-Sep | 02:55PM | VFR | 120° | 9 kt | 10 miles | 31° | 87° | 25° | 77° | 71% | 29.97 in Hg | 3,395 ft | |||
| 05-Sep | 02:15PM | VFR | 70° | 5 kt | 10 miles | 29° | 84° | 23° | 73° | 70% | 30.00 in Hg | 3,125 ft |
Login
| Your browser is unsupported. upgrade your browser |
